Time;durP1;ratioP1;P1;durP2;ratioP2;P2;SDS_P1;SDS_P2;PMS_P1;PMS_P2;Temp;Humidity;BMP_temperature;BMP_pressure;BME280_temperature;BME280_humidity;BME280_pressure;Samples;Min_cycle;Max_cycle;Signal;HPM_P1;HPM_P2
2021/09/18 00:01:39;;;;;;;11.38;9.77;;;;;;;;;;5018732;28;20022;-81
2021/09/18 00:04:05;;;;;;;11.02;9.68;;;;;;;;;;5018546;28;20018;-81
2021/09/18 00:06:32;;;;;;;10.57;9.57;;;;;;;;;;5018307;28;20117;-81
2021/09/18 00:08:58;;;;;;;10.95;9.85;;;;;;;;;;5018395;28;20022;-81
2021/09/18 00:11:24;;;;;;;10.95;9.80;;;;;;;;;;5018469;28;20071;-81
2021/09/18 00:13:50;;;;;;;10.50;9.43;;;;;;;;;;5018364;28;20032;-81
2021/09/18 00:16:16;;;;;;;13.23;10.00;;;;;;;;;;5018435;28;20037;-81
2021/09/18 00:18:43;;;;;;;11.40;9.82;;;;;;;;;;5018340;28;20033;-81
2021/09/18 00:21:09;;;;;;;11.77;9.70;;;;;;;;;;5018155;28;20033;-81
2021/09/18 00:23:35;;;;;;;12.02;10.25;;;;;;;;;;5018238;28;20396;-81
2021/09/18 00:26:01;;;;;;;13.13;11.30;;;;;;;;;;5000786;28;20392;-81
2021/09/18 00:28:28;;;;;;;11.48;10.27;;;;;;;;;;5000620;28;20419;-81
2021/09/18 00:30:54;;;;;;;16.52;10.90;;;;;;;;;;5000610;28;20289;-81
2021/09/18 00:33:20;;;;;;;11.40;10.30;;;;;;;;;;5018005;28;20032;-81
2021/09/18 00:35:46;;;;;;;11.82;10.27;;;;;;;;;;5000566;28;20290;-81
2021/09/18 00:38:13;;;;;;;12.52;9.20;;;;;;;;;;5017663;28;20026;-81
2021/09/18 00:40:39;;;;;;;11.50;10.30;;;;;;;;;;5017784;28;20029;-81
2021/09/18 00:43:05;;;;;;;16.10;12.88;;;;;;;;;;5017638;28;20396;-81
2021/09/18 00:45:31;;;;;;;16.50;12.63;;;;;;;;;;5017937;28;20030;-81
2021/09/18 00:47:57;;;;;;;13.13;10.98;;;;;;;;;;4999901;28;20069;-81
2021/09/18 00:50:23;;;;;;;15.45;10.88;;;;;;;;;;5017732;28;20021;-81
2021/09/18 00:52:50;;;;;;;12.65;10.25;;;;;;;;;;5000004;28;20064;-81
2021/09/18 00:55:16;;;;;;;11.68;10.48;;;;;;;;;;4999879;28;20438;-81
2021/09/18 00:57:42;;;;;;;15.02;12.85;;;;;;;;;;5017708;28;20080;-81
2021/09/18 01:00:10;;;;;;;16.70;12.05;;;;;;;;;;5017475;28;20328;-82
2021/09/18 01:02:36;;;;;;;15.13;11.13;;;;;;;;;;5017471;28;20029;-81
2021/09/18 01:05:03;;;;;;;13.73;10.20;;;;;;;;;;5017445;28;20058;-81
2021/09/18 01:07:30;;;;;;;11.25;9.80;;;;;;;;;;5017542;28;20486;-81
2021/09/18 01:09:56;;;;;;;11.68;9.90;;;;;;;;;;5017413;28;20113;-81
2021/09/18 01:12:22;;;;;;;10.40;9.38;;;;;;;;;;4999529;28;20331;-81
2021/09/18 01:14:49;;;;;;;11.48;9.52;;;;;;;;;;5017328;28;20293;-81
2021/09/18 01:17:15;;;;;;;16.92;12.88;;;;;;;;;;5017577;28;20359;-81
2021/09/18 01:19:42;;;;;;;16.10;12.38;;;;;;;;;;5017401;28;20026;-81
2021/09/18 01:22:09;;;;;;;12.75;11.27;;;;;;;;;;5017533;28;20030;-80
2021/09/18 01:24:35;;;;;;;11.27;10.07;;;;;;;;;;5016920;28;20316;-80
2021/09/18 01:27:01;;;;;;;11.18;9.63;;;;;;;;;;5017282;28;20030;-81
2021/09/18 01:29:27;;;;;;;13.43;9.80;;;;;;;;;;5017182;28;20332;-81
2021/09/18 01:31:54;;;;;;;11.50;9.98;;;;;;;;;;5017456;28;20315;-80
2021/09/18 01:34:21;;;;;;;11.18;9.38;;;;;;;;;;4999838;28;20441;-80
2021/09/18 01:36:48;;;;;;;12.63;9.60;;;;;;;;;;5016966;28;20033;-81
2021/09/18 01:39:14;;;;;;;11.23;8.80;;;;;;;;;;5017115;28;20346;-81
2021/09/18 01:41:42;;;;;;;12.68;9.77;;;;;;;;;;5017099;28;20022;-81
2021/09/18 01:44:08;;;;;;;10.82;9.18;;;;;;;;;;4999640;28;20069;-81
2021/09/18 01:46:34;;;;;;;11.35;9.20;;;;;;;;;;5016795;28;20060;-80
2021/09/18 01:49:00;;;;;;;10.38;9.38;;;;;;;;;;5017012;28;20076;-81
2021/09/18 01:51:29;;;;;;;12.50;9.45;;;;;;;;;;5016702;28;20072;-81
2021/09/18 01:53:55;;;;;;;10.18;9.13;;;;;;;;;;5016884;28;20110;-80
2021/09/18 01:56:21;;;;;;;11.48;9.80;;;;;;;;;;4999460;28;20061;-80
2021/09/18 01:58:47;;;;;;;14.25;10.32;;;;;;;;;;5016821;28;20029;-80
2021/09/18 02:01:13;;;;;;;10.88;9.75;;;;;;;;;;5016940;28;20030;-81
2021/09/18 02:03:39;;;;;;;14.32;10.27;;;;;;;;;;5016841;28;20410;-81
2021/09/18 02:06:05;;;;;;;11.93;10.07;;;;;;;;;;5019857;28;20025;-81
2021/09/18 02:08:31;;;;;;;12.43;10.70;;;;;;;;;;5020668;28;20108;-81
2021/09/18 02:10:58;;;;;;;12.50;10.43;;;;;;;;;;5020612;28;20021;-81
2021/09/18 02:13:25;;;;;;;15.40;10.48;;;;;;;;;;5020316;28;20026;-81
2021/09/18 02:15:51;;;;;;;14.55;10.48;;;;;;;;;;5020432;28;20157;-81
2021/09/18 02:18:17;;;;;;;11.02;9.88;;;;;;;;;;5020602;28;20025;-81
2021/09/18 02:20:44;;;;;;;13.05;10.75;;;;;;;;;;5020330;28;20088;-82
2021/09/18 02:23:11;;;;;;;12.02;10.27;;;;;;;;;;5020582;28;20106;-81
2021/09/18 02:25:38;;;;;;;13.40;11.98;;;;;;;;;;5002910;28;20026;-81
2021/09/18 02:28:05;;;;;;;12.38;10.57;;;;;;;;;;5020347;28;20105;-81
2021/09/18 02:30:32;;;;;;;12.95;10.93;;;;;;;;;;5020354;28;20084;-81
2021/09/18 02:32:59;;;;;;;12.40;11.10;;;;;;;;;;5020137;28;20069;-81
2021/09/18 02:35:26;;;;;;;16.10;11.00;;;;;;;;;;5020003;28;20434;-81
2021/09/18 02:37:53;;;;;;;12.48;10.57;;;;;;;;;;5020053;28;20034;-81
2021/09/18 02:40:20;;;;;;;13.43;10.52;;;;;;;;;;5020235;28;20026;-81
2021/09/18 02:42:47;;;;;;;11.82;10.25;;;;;;;;;;5019862;28;20046;-81
2021/09/18 02:45:13;;;;;;;15.63;10.85;;;;;;;;;;5019925;28;20153;-81
2021/09/18 02:47:40;;;;;;;13.07;10.48;;;;;;;;;;5019775;28;20058;-81
2021/09/18 02:50:07;;;;;;;12.27;10.50;;;;;;;;;;5019689;28;20026;-81
2021/09/18 02:52:34;;;;;;;12.20;10.90;;;;;;;;;;5019686;28;20032;-81
2021/09/18 02:55:00;;;;;;;11.50;10.23;;;;;;;;;;5001923;28;20062;-81
2021/09/18 02:57:27;;;;;;;12.60;10.55;;;;;;;;;;5019571;28;20461;-81
2021/09/18 02:59:53;;;;;;;13.93;10.82;;;;;;;;;;5002275;28;20045;-81
2021/09/18 03:02:19;;;;;;;12.77;11.15;;;;;;;;;;5019565;28;20408;-82
2021/09/18 03:04:45;;;;;;;14.43;10.57;;;;;;;;;;5019560;28;20022;-81
2021/09/18 03:07:11;;;;;;;13.07;10.07;;;;;;;;;;5019427;28;20079;-81
2021/09/18 03:09:37;;;;;;;11.18;10.05;;;;;;;;;;5019481;28;20025;-80
2021/09/18 03:12:03;;;;;;;11.50;10.23;;;;;;;;;;5019473;28;20037;-81
2021/09/18 03:14:29;;;;;;;12.65;10.15;;;;;;;;;;5019331;28;20033;-81
2021/09/18 03:16:55;;;;;;;14.68;10.55;;;;;;;;;;5001118;28;20053;-81
2021/09/18 03:19:22;;;;;;;12.98;10.68;;;;;;;;;;5001371;28;20046;-80
2021/09/18 03:21:48;;;;;;;14.52;10.77;;;;;;;;;;5019244;28;20026;-80
2021/09/18 03:24:14;;;;;;;14.20;12.38;;;;;;;;;;5019262;28;20427;-80
2021/09/18 03:26:43;;;;;;;13.38;11.68;;;;;;;;;;5019254;28;20026;-80
2021/09/18 03:29:12;;;;;;;14.32;11.90;;;;;;;;;;5019241;28;20104;-81
2021/09/18 03:31:39;;;;;;;14.60;10.40;;;;;;;;;;5001784;28;20033;-80
2021/09/18 03:34:05;;;;;;;14.57;10.65;;;;;;;;;;5001717;28;20056;-80
2021/09/18 03:36:31;;;;;;;13.73;10.57;;;;;;;;;;5018984;28;20026;-81
2021/09/18 03:38:57;;;;;;;11.52;10.40;;;;;;;;;;5019113;28;20026;-81
2021/09/18 03:41:23;;;;;;;13.98;10.75;;;;;;;;;;5019046;28;20022;-80
2021/09/18 03:43:49;;;;;;;13.20;10.73;;;;;;;;;;5018934;28;20018;-80
2021/09/18 03:46:16;;;;;;;13.50;10.75;;;;;;;;;;5018621;28;20028;-80
2021/09/18 03:48:42;;;;;;;16.30;10.52;;;;;;;;;;5001384;28;20420;-80
2021/09/18 03:51:08;;;;;;;12.30;10.48;;;;;;;;;;5001157;28;20092;-81
2021/09/18 03:53:34;;;;;;;13.55;10.73;;;;;;;;;;5001073;28;20033;-80
2021/09/18 03:56:00;;;;;;;13.15;11.02;;;;;;;;;;5018661;28;20125;-80
2021/09/18 03:58:27;;;;;;;14.73;10.10;;;;;;;;;;5018572;28;20313;-81
2021/09/18 04:00:53;;;;;;;13.20;10.55;;;;;;;;;;5001198;28;20037;-81
2021/09/18 04:03:19;;;;;;;12.63;10.75;;;;;;;;;;5018708;28;20052;-80
2021/09/18 04:05:45;;;;;;;13.90;11.02;;;;;;;;;;5018425;28;20021;-80
2021/09/18 04:08:11;;;;;;;12.77;11.45;;;;;;;;;;5018770;28;20088;-81
2021/09/18 04:10:38;;;;;;;13.73;11.10;;;;;;;;;;5018313;28;20030;-81
2021/09/18 04:13:04;;;;;;;14.82;11.30;;;;;;;;;;5018292;28;20080;-81
2021/09/18 04:15:30;;;;;;;15.02;10.73;;;;;;;;;;5018475;28;20022;-81
2021/09/18 04:17:56;;;;;;;18.80;10.70;;;;;;;;;;5018379;28;20026;-81
2021/09/18 04:20:22;;;;;;;15.18;10.23;;;;;;;;;;5018041;28;20028;-81
2021/09/18 04:22:48;;;;;;;12.82;10.10;;;;;;;;;;5018230;28;20415;-81
2021/09/18 04:25:15;;;;;;;16.08;10.13;;;;;;;;;;5018032;28;20431;-81
2021/09/18 04:27:41;;;;;;;13.55;10.07;;;;;;;;;;5018344;28;20112;-81
2021/09/18 04:30:07;;;;;;;12.43;9.38;;;;;;;;;;5018007;28;20113;-81
2021/09/18 04:32:33;;;;;;;13.80;9.70;;;;;;;;;;5017938;28;20034;-81
2021/09/18 04:34:59;;;;;;;13.18;9.85;;;;;;;;;;5018186;28;20052;-81
2021/09/18 04:37:25;;;;;;;12.15;9.77;;;;;;;;;;5017653;28;20424;-81
2021/09/18 04:39:52;;;;;;;14.48;10.18;;;;;;;;;;5017890;28;20328;-81
2021/09/18 04:42:18;;;;;;;10.70;9.60;;;;;;;;;;5017918;28;20018;-81
2021/09/18 04:44:44;;;;;;;11.43;9.98;;;;;;;;;;5017698;28;20025;-81
2021/09/18 04:47:10;;;;;;;12.02;10.05;;;;;;;;;;5017716;28;20103;-81
2021/09/18 04:49:37;;;;;;;11.43;9.38;;;;;;;;;;5000377;28;20030;-81
2021/09/18 04:52:03;;;;;;;12.00;8.93;;;;;;;;;;5000256;28;20026;-81
2021/09/18 04:54:29;;;;;;;15.50;9.20;;;;;;;;;;5017593;28;20160;-81
2021/09/18 04:56:55;;;;;;;14.05;9.88;;;;;;;;;;5017484;28;20030;-81
2021/09/18 04:59:21;;;;;;;13.45;9.30;;;;;;;;;;5000150;28;20034;-81
2021/09/18 05:01:47;;;;;;;13.55;10.05;;;;;;;;;;5017743;28;20355;-81
2021/09/18 05:04:13;;;;;;;15.05;10.30;;;;;;;;;;5017792;28;20022;-81
2021/09/18 05:06:39;;;;;;;14.57;10.10;;;;;;;;;;5000114;28;20022;-82
2021/09/18 05:09:06;;;;;;;16.33;10.07;;;;;;;;;;5017357;28;20053;-81
2021/09/18 05:11:33;;;;;;;10.95;9.77;;;;;;;;;;5017539;28;20037;-80
2021/09/18 05:13:59;;;;;;;13.32;10.57;;;;;;;;;;5017380;28;20026;-81
2021/09/18 05:16:25;;;;;;;14.63;9.77;;;;;;;;;;5017122;28;20030;-80
2021/09/18 05:18:51;;;;;;;11.45;10.23;;;;;;;;;;4999826;28;20053;-84
2021/09/18 05:21:17;;;;;;;14.13;10.52;;;;;;;;;;5017879;28;20022;-84
2021/09/18 05:23:43;;;;;;;11.77;10.25;;;;;;;;;;5017730;28;20117;-84
2021/09/18 05:26:11;;;;;;;14.38;10.18;;;;;;;;;;5017954;28;20340;-84
2021/09/18 05:28:37;;;;;;;12.07;9.73;;;;;;;;;;5017458;28;20026;-84
2021/09/18 05:31:03;;;;;;;10.90;9.57;;;;;;;;;;5000191;28;20033;-84
2021/09/18 05:33:29;;;;;;;11.45;9.07;;;;;;;;;;5017873;28;20022;-84
2021/09/18 05:35:55;;;;;;;11.90;9.65;;;;;;;;;;5000074;28;20096;-85
2021/09/18 05:38:22;;;;;;;11.25;8.18;;;;;;;;;;5017602;28;20037;-85
2021/09/18 05:40:48;;;;;;;10.65;8.50;;;;;;;;;;5020233;28;20478;-84
2021/09/18 05:43:14;;;;;;;11.43;8.48;;;;;;;;;;5004278;28;20022;-84
2021/09/18 05:45:40;;;;;;;8.52;7.50;;;;;;;;;;5021558;28;20036;-85
2021/09/18 05:48:07;;;;;;;12.20;8.40;;;;;;;;;;5003938;28;20161;-85
2021/09/18 05:50:34;;;;;;;11.50;7.75;;;;;;;;;;5021244;28;20029;-85
2021/09/18 05:53:00;;;;;;;11.45;8.00;;;;;;;;;;5021429;28;20061;-84
2021/09/18 05:55:26;;;;;;;8.50;7.60;;;;;;;;;;5021343;28;20320;-84
2021/09/18 05:57:52;;;;;;;9.52;7.88;;;;;;;;;;5003820;28;20026;-84
2021/09/18 06:00:19;;;;;;;9.68;6.95;;;;;;;;;;5003847;28;20052;-84
2021/09/18 06:02:45;;;;;;;13.70;7.85;;;;;;;;;;5003767;28;20319;-85
2021/09/18 06:05:12;;;;;;;8.75;7.30;;;;;;;;;;5021389;28;20164;-84
2021/09/18 06:07:38;;;;;;;10.43;7.03;;;;;;;;;;5003754;28;20045;-85
2021/09/18 06:10:04;;;;;;;9.77;7.53;;;;;;;;;;5021161;28;20064;-84
2021/09/18 06:12:31;;;;;;;8.48;6.90;;;;;;;;;;5021044;28;20030;-85
2021/09/18 06:14:57;;;;;;;11.00;7.88;;;;;;;;;;5020775;28;20036;-84
2021/09/18 06:17:23;;;;;;;7.82;7.03;;;;;;;;;;5003454;28;20072;-84
2021/09/18 06:19:49;;;;;;;16.65;13.43;;;;;;;;;;5020854;28;20036;-84
2021/09/18 06:22:15;;;;;;;8.15;7.25;;;;;;;;;;5003499;28;20109;-84
2021/09/18 06:24:42;;;;;;;8.18;6.75;;;;;;;;;;5021045;28;20052;-85
2021/09/18 06:27:08;;;;;;;8.50;6.53;;;;;;;;;;5020480;28;20053;-85
2021/09/18 06:29:34;;;;;;;9.13;6.28;;;;;;;;;;5003120;28;20101;-84
2021/09/18 06:32:01;;;;;;;7.38;6.65;;;;;;;;;;5020895;28;20041;-84
2021/09/18 06:34:27;;;;;;;13.27;7.15;;;;;;;;;;5020318;28;20097;-85
2021/09/18 06:36:54;;;;;;;6.53;5.90;;;;;;;;;;5020584;28;20026;-85
2021/09/18 06:39:20;;;;;;;11.40;6.63;;;;;;;;;;5020590;28;20026;-85
2021/09/18 06:41:46;;;;;;;12.80;6.95;;;;;;;;;;5020704;28;20018;-84
2021/09/18 06:44:12;;;;;;;7.50;6.70;;;;;;;;;;5003184;28;20048;-85
2021/09/18 06:46:38;;;;;;;6.47;5.88;;;;;;;;;;5019878;28;20428;-85
2021/09/18 06:49:04;;;;;;;7.93;6.38;;;;;;;;;;5020032;28;20029;-84
2021/09/18 06:51:30;;;;;;;6.88;6.18;;;;;;;;;;5018930;28;20022;-84
2021/09/18 06:53:56;;;;;;;7.00;6.30;;;;;;;;;;5020342;28;20056;-85
2021/09/18 06:56:22;;;;;;;8.02;5.78;;;;;;;;;;5002745;28;20080;-85
2021/09/18 07:14:06;;;;;;;6.13;5.50;;;;;;;;;;5047767;23;20108;-83
2021/09/18 07:16:32;;;;;;;8.95;5.60;;;;;;;;;;5019583;28;20021;-83
2021/09/18 07:18:59;;;;;;;13.48;6.10;;;;;;;;;;5019534;28;20033;-83
2021/09/18 07:21:25;;;;;;;7.32;5.50;;;;;;;;;;5019378;28;20022;-82
2021/09/18 07:23:51;;;;;;;7.18;5.57;;;;;;;;;;5019606;28;20042;-82
2021/09/18 07:26:17;;;;;;;8.15;5.63;;;;;;;;;;5018330;28;20026;-83
2021/09/18 07:28:43;;;;;;;5.80;5.00;;;;;;;;;;5018391;28;20029;-83
2021/09/18 07:31:09;;;;;;;7.00;4.97;;;;;;;;;;5019497;28;20052;-83
2021/09/18 07:33:35;;;;;;;7.57;5.25;;;;;;;;;;5019319;28;20029;-83
2021/09/18 07:36:02;;;;;;;6.50;5.00;;;;;;;;;;5018321;28;20045;-83
2021/09/18 07:38:28;;;;;;;6.93;4.85;;;;;;;;;;5019154;28;20032;-83
2021/09/18 07:40:56;;;;;;;6.88;4.45;;;;;;;;;;5019252;28;20473;-84
2021/09/18 07:43:22;;;;;;;7.70;5.50;;;;;;;;;;5019600;28;20053;-84
2021/09/18 07:45:48;;;;;;;7.75;5.40;;;;;;;;;;5019243;28;20037;-84
2021/09/18 07:48:14;;;;;;;7.05;5.20;;;;;;;;;;5019303;28;20022;-83
2021/09/18 07:50:40;;;;;;;7.57;4.82;;;;;;;;;;5019085;28;20022;-84
2021/09/18 07:53:07;;;;;;;7.43;5.22;;;;;;;;;;5017566;28;20041;-83
2021/09/18 07:55:34;;;;;;;6.68;5.13;;;;;;;;;;5018883;28;20428;-84
2021/09/18 07:58:00;;;;;;;5.47;4.97;;;;;;;;;;5017913;28;20029;-84
2021/09/18 08:00:27;;;;;;;6.88;4.40;;;;;;;;;;5018887;28;20076;-84
2021/09/18 08:02:55;;;;;;;5.88;5.00;;;;;;;;;;5018545;28;20308;-84
2021/09/18 08:05:22;;;;;;;7.07;4.47;;;;;;;;;;5018893;28;20308;-84
2021/09/18 08:07:48;;;;;;;5.10;4.40;;;;;;;;;;5018571;28;20025;-84
2021/09/18 08:10:14;;;;;;;7.72;4.50;;;;;;;;;;5017337;28;20046;-84
2021/09/18 08:12:47;;;;;;;6.53;4.38;;;;;;;;;;5019173;28;20416;-85
2021/09/18 08:15:13;;;;;;;5.47;4.97;;;;;;;;;;5037069;28;20045;-81
2021/09/18 08:17:39;;;;;;;10.20;5.55;;;;;;;;;;5037834;28;20021;-81
2021/09/18 08:20:06;;;;;;;9.48;7.95;;;;;;;;;;5037192;28;20025;-85
2021/09/18 08:22:32;;;;;;;7.50;5.35;;;;;;;;;;5037418;28;20026;-85
2021/09/18 08:24:58;;;;;;;5.97;4.75;;;;;;;;;;5038411;28;20026;-84
2021/09/18 08:27:24;;;;;;;7.75;4.60;;;;;;;;;;5038245;28;20026;-79
2021/09/18 08:29:50;;;;;;;6.18;4.88;;;;;;;;;;5037927;28;20117;-82
2021/09/18 08:32:16;;;;;;;4.55;4.03;;;;;;;;;;5038071;28;20030;-82
2021/09/18 08:34:42;;;;;;;6.30;4.60;;;;;;;;;;5036997;28;20435;-82
2021/09/18 08:37:08;;;;;;;6.28;4.00;;;;;;;;;;5036869;28;20470;-84
2021/09/18 08:39:35;;;;;;;6.53;3.75;;;;;;;;;;5038053;28;20024;-84
2021/09/18 08:42:04;;;;;;;4.90;3.83;;;;;;;;;;5037129;28;20021;-86
2021/09/18 08:44:31;;;;;;;6.68;3.88;;;;;;;;;;5038255;28;20029;-88
2021/09/18 08:46:57;;;;;;;5.10;3.42;;;;;;;;;;5038038;28;20032;-90
2021/09/18 08:49:23;;;;;;;7.63;3.78;;;;;;;;;;5037056;28;20069;-85
2021/09/18 08:51:49;;;;;;;6.80;4.13;;;;;;;;;;5036788;28;20073;-85
2021/09/18 08:54:15;;;;;;;4.20;3.60;;;;;;;;;;5037052;28;20025;-85
2021/09/18 08:56:41;;;;;;;5.55;4.10;;;;;;;;;;5036886;28;20021;-85
2021/09/18 08:59:08;;;;;;;4.13;3.40;;;;;;;;;;5036729;28;20029;-85
2021/09/18 09:01:34;;;;;;;4.25;3.47;;;;;;;;;;5037580;28;20025;-85
2021/09/18 09:04:01;;;;;;;3.55;3.25;;;;;;;;;;5037872;28;20025;-86
2021/09/18 09:06:41;;;;;;;5.13;3.25;;;;;;;;;;5036736;28;20021;-85
2021/09/18 09:09:08;;;;;;;4.10;3.70;;;;;;;;;;5037571;28;20032;-85
2021/09/18 09:11:34;;;;;;;3.33;3.00;;;;;;;;;;5037970;28;20045;-85
2021/09/18 09:14:04;;;;;;;4.32;3.20;;;;;;;;;;5035987;28;20045;-85
2021/09/18 09:16:31;;;;;;;5.47;3.47;;;;;;;;;;5037461;28;20034;-84
2021/09/18 09:18:58;;;;;;;3.38;2.95;;;;;;;;;;5036522;28;20025;-84
2021/09/18 09:21:28;;;;;;;3.53;2.90;;;;;;;;;;5037425;28;20028;-85
2021/09/18 09:24:15;;;;;;;4.80;2.63;;;;;;;;;;5036652;28;20017;-85
2021/09/18 09:27:04;;;;;;;6.93;2.85;;;;;;;;;;5037259;28;20033;-85
2021/09/18 09:29:42;;;;;;;5.07;2.70;;;;;;;;;;5037530;28;20096;-85
2021/09/18 09:32:26;;;;;;;6.68;2.58;;;;;;;;;;5037731;28;20068;-85
2021/09/18 09:34:53;;;;;;;5.13;2.63;;;;;;;;;;5037372;28;20398;-84
2021/09/18 09:37:19;;;;;;;3.42;2.35;;;;;;;;;;5037308;28;20026;-85
2021/09/18 09:39:50;;;;;;;3.30;2.67;;;;;;;;;;5036418;28;20025;-84
2021/09/18 09:42:16;;;;;;;5.63;3.10;;;;;;;;;;5037320;28;20105;-84
2021/09/18 09:44:42;;;;;;;10.45;5.80;;;;;;;;;;5036905;28;20293;-84
2021/09/18 09:47:10;;;;;;;5.90;4.10;;;;;;;;;;5037168;28;20034;-84
2021/09/18 09:49:42;;;;;;;2.90;2.70;;;;;;;;;;5037306;28;20026;-84
2021/09/18 09:52:27;;;;;;;2.85;2.10;;;;;;;;;;5036074;28;20022;-84
2021/09/18 09:55:00;;;;;;;2.97;2.53;;;;;;;;;;5037222;28;20026;-83
2021/09/18 09:57:26;;;;;;;2.42;2.10;;;;;;;;;;5037207;28;20057;-84
2021/09/18 09:59:59;;;;;;;5.32;2.80;;;;;;;;;;5037022;28;20028;-84
2021/09/18 10:02:27;;;;;;;3.80;2.38;;;;;;;;;;5037088;28;20049;-85
2021/09/18 10:04:53;;;;;;;8.10;2.20;;;;;;;;;;5037264;28;20355;-84
2021/09/18 10:07:19;;;;;;;3.38;2.30;;;;;;;;;;5036797;28;20022;-84
2021/09/18 10:09:47;;;;;;;2.88;2.05;;;;;;;;;;5037122;28;20048;-84
2021/09/18 10:12:13;;;;;;;4.03;2.30;;;;;;;;;;5035594;28;20427;-84
2021/09/18 10:14:40;;;;;;;2.78;2.17;;;;;;;;;;5036675;28;20050;-84
2021/09/18 10:17:07;;;;;;;2.78;2.00;;;;;;;;;;5036906;28;20152;-84
2021/09/18 10:19:54;;;;;;;2.47;2.08;;;;;;;;;;5035812;28;20065;-84
2021/09/18 10:25:17;;;;;;;2.50;2.28;;;;;;;;;;5037200;28;20041;-85
2021/09/18 10:27:57;;;;;;;6.85;1.90;;;;;;;;;;5040523;28;20465;-84
2021/09/18 10:30:32;;;;;;;3.08;1.80;;;;;;;;;;5039463;28;20029;-84
2021/09/18 10:32:58;;;;;;;5.97;2.17;;;;;;;;;;5040531;28;20025;-84
2021/09/18 10:35:24;;;;;;;2.35;2.08;;;;;;;;;;5039388;28;20040;-84
2021/09/18 10:37:50;;;;;;;3.35;2.00;;;;;;;;;;5040415;28;20028;-83
2021/09/18 10:40:17;;;;;;;4.25;1.88;;;;;;;;;;5039160;28;20059;-84
2021/09/18 10:42:44;;;;;;;29.75;2.60;;;;;;;;;;5040216;28;20025;-84
2021/09/18 10:45:11;;;;;;;3.67;2.17;;;;;;;;;;5040112;28;20430;-83
2021/09/18 10:47:38;;;;;;;3.72;2.10;;;;;;;;;;5040222;28;20030;-84
2021/09/18 10:50:06;;;;;;;4.68;2.20;;;;;;;;;;5039998;28;20421;-84
2021/09/18 10:52:36;;;;;;;4.63;2.22;;;;;;;;;;5039756;28;20025;-84
2021/09/18 10:55:02;;;;;;;3.13;1.95;;;;;;;;;;5038348;28;20416;-84
2021/09/18 10:57:28;;;;;;;4.75;2.00;;;;;;;;;;5038412;28;20029;-83
2021/09/18 10:59:55;;;;;;;6.15;1.70;;;;;;;;;;5039877;28;20022;-84
2021/09/18 11:02:33;;;;;;;3.78;1.45;;;;;;;;;;5039792;28;20415;-84
2021/09/18 11:04:59;;;;;;;3.75;1.52;;;;;;;;;;5039834;28;20064;-84
2021/09/18 11:07:40;;;;;;;3.38;1.70;;;;;;;;;;5039731;28;20029;-84
2021/09/18 11:10:33;;;;;;;1.60;1.10;;;;;;;;;;5039668;28;20116;-84
2021/09/18 11:13:08;;;;;;;2.03;1.23;;;;;;;;;;4962457;28;20055;-84
2021/09/18 11:15:42;;;;;;;4.38;1.25;;;;;;;;;;4979069;28;20031;-84
2021/09/18 11:18:15;;;;;;;3.20;1.50;;;;;;;;;;4962941;28;20039;-84
2021/09/18 11:20:41;;;;;;;2.95;1.60;;;;;;;;;;4978896;28;20023;-84
2021/09/18 11:23:07;;;;;;;1.40;1.23;;;;;;;;;;4978709;28;20041;-84
2021/09/18 11:25:33;;;;;;;4.30;1.73;;;;;;;;;;4962575;28;20054;-84
2021/09/18 11:28:09;;;;;;;2.15;1.42;;;;;;;;;;4962502;28;20056;-84
2021/09/18 11:30:41;;;;;;;2.45;1.40;;;;;;;;;;4962922;28;20445;-84
2021/09/18 11:33:07;;;;;;;3.13;1.70;;;;;;;;;;4978572;28;20037;-84
2021/09/18 11:35:33;;;;;;;2.55;1.60;;;;;;;;;;4978353;28;20081;-83
2021/09/18 11:38:00;;;;;;;2.67;1.60;;;;;;;;;;4977711;28;20105;-84
2021/09/18 11:40:27;;;;;;;1.45;1.35;;;;;;;;;;4962575;28;20022;-83
2021/09/18 11:42:56;;;;;;;1.92;1.00;;;;;;;;;;4978278;28;20429;-84
2021/09/18 11:45:24;;;;;;;1.30;1.00;;;;;;;;;;4978778;28;20109;-85
2021/09/18 11:47:52;;;;;;;1.83;1.20;;;;;;;;;;4978566;28;20026;-85
2021/09/18 11:50:19;;;;;;;1.95;1.20;;;;;;;;;;5023179;28;20042;-84
2021/09/18 11:52:45;;;;;;;2.70;1.30;;;;;;;;;;5038729;28;20041;-85
2021/09/18 11:55:28;;;;;;;1.10;1.00;;;;;;;;;;5039011;28;20021;-84
2021/09/18 11:58:01;;;;;;;1.23;0.80;;;;;;;;;;5037316;28;20075;-85
2021/09/18 12:00:27;;;;;;;1.85;1.20;;;;;;;;;;5039123;28;20101;-85
2021/09/18 12:02:57;;;;;;;2.60;1.20;;;;;;;;;;5038793;28;20033;-86
2021/09/18 12:05:23;;;;;;;3.35;1.20;;;;;;;;;;5037700;28;20067;-85
2021/09/18 12:07:51;;;;;;;2.10;1.08;;;;;;;;;;5037583;28;20025;-85
2021/09/18 12:10:18;;;;;;;2.15;1.13;;;;;;;;;;5038797;28;20423;-85
2021/09/18 12:12:54;;;;;;;4.70;1.10;;;;;;;;;;5037752;28;20033;-85
2021/09/18 12:15:52;;;;;;;3.88;1.20;;;;;;;;;;5037121;28;20064;-85
2021/09/18 12:18:24;;;;;;;1.23;1.00;;;;;;;;;;4958523;29;20136;-85
2021/09/18 12:20:54;;;;;;;1.10;0.98;;;;;;;;;;4958839;29;20091;-85
2021/09/18 12:23:20;;;;;;;3.15;0.85;;;;;;;;;;4958650;29;20023;-84
2021/09/18 12:25:52;;;;;;;1.30;1.20;;;;;;;;;;4958551;29;20031;-84
2021/09/18 12:28:18;;;;;;;2.03;1.20;;;;;;;;;;4958354;29;20043;-84
2021/09/18 12:30:45;;;;;;;3.95;1.30;;;;;;;;;;4958396;29;20143;-85
2021/09/18 12:33:11;;;;;;;2.33;1.05;;;;;;;;;;4958443;29;20122;-84
2021/09/18 12:35:42;;;;;;;2.65;1.60;;;;;;;;;;4958102;29;20047;-85
2021/09/18 12:38:08;;;;;;;0.90;0.90;;;;;;;;;;4942089;29;20031;-84
2021/09/18 12:40:39;;;;;;;1.80;1.30;;;;;;;;;;4942150;29;20058;-84
2021/09/18 12:43:05;;;;;;;3.53;1.67;;;;;;;;;;4957986;29;20122;-83
2021/09/18 12:45:34;;;;;;;1.50;1.40;;;;;;;;;;4958296;29;20038;-84
2021/09/18 12:48:12;;;;;;;5.70;1.27;;;;;;;;;;4958154;29;20036;-84
2021/09/18 12:50:48;;;;;;;1.98;1.20;;;;;;;;;;4941134;29;20031;-84
2021/09/18 12:53:22;;;;;;;2.63;1.15;;;;;;;;;;4961749;28;20045;-84
2021/09/18 12:56:06;;;;;;;2.45;1.35;;;;;;;;;;5037915;28;20036;-84
2021/09/18 12:58:32;;;;;;;2.08;1.60;;;;;;;;;;5037740;28;20056;-84
2021/09/18 13:00:59;;;;;;;5.10;2.17;;;;;;;;;;5037776;28;20033;-84
2021/09/18 13:03:26;;;;;;;2.83;1.60;;;;;;;;;;5036640;28;20109;-84
2021/09/18 13:06:15;;;;;;;5.40;1.70;;;;;;;;;;5036652;28;20316;-84
2021/09/18 13:09:00;;;;;;;2.55;1.48;;;;;;;;;;4958028;29;20074;-84
2021/09/18 13:11:30;;;;;;;2.25;1.60;;;;;;;;;;4957984;29;20027;-83
2021/09/18 13:14:07;;;;;;;3.03;1.85;;;;;;;;;;4957351;29;20086;-84
2021/09/18 13:16:33;;;;;;;3.70;1.90;;;;;;;;;;4957786;29;20118;-84
2021/09/18 13:19:07;;;;;;;9.07;1.92;;;;;;;;;;4957244;29;20433;-83
2021/09/18 13:21:33;;;;;;;2.58;1.90;;;;;;;;;;4957635;29;20032;-84
2021/09/18 13:23:59;;;;;;;3.22;1.55;;;;;;;;;;4940835;29;20031;-84
2021/09/18 13:26:25;;;;;;;9.25;2.30;;;;;;;;;;4957530;29;20114;-83
2021/09/18 13:28:52;;;;;;;3.50;1.65;;;;;;;;;;4957507;29;20476;-83
2021/09/18 13:31:18;;;;;;;8.48;1.40;;;;;;;;;;4957343;29;20102;-83
2021/09/18 13:33:44;;;;;;;7.38;1.65;;;;;;;;;;4957485;29;20083;-84
2021/09/18 13:36:10;;;;;;;3.15;1.50;;;;;;;;;;4957324;29;20410;-84
2021/09/18 13:38:36;;;;;;;1.38;1.25;;;;;;;;;;4957231;29;20047;-83
2021/09/18 13:41:02;;;;;;;3.13;1.48;;;;;;;;;;4956225;29;20146;-84
2021/09/18 13:43:28;;;;;;;2.40;1.52;;;;;;;;;;4957170;29;20035;-83
2021/09/18 13:45:54;;;;;;;1.10;1.00;;;;;;;;;;5005280;28;20034;-83
2021/09/18 13:48:20;;;;;;;2.35;1.73;;;;;;;;;;5037279;28;20045;-84
2021/09/18 13:50:46;;;;;;;1.88;1.45;;;;;;;;;;5037050;28;20429;-83
2021/09/18 13:53:12;;;;;;;5.28;1.40;;;;;;;;;;5037228;28;20033;-84
2021/09/18 13:55:38;;;;;;;2.10;1.27;;;;;;;;;;5036935;28;20048;-83
2021/09/18 13:58:05;;;;;;;3.42;1.13;;;;;;;;;;5036919;28;20022;-83
2021/09/18 14:00:33;;;;;;;2.90;1.23;;;;;;;;;;5036887;28;20025;-83
2021/09/18 14:03:03;;;;;;;6.07;1.48;;;;;;;;;;5039549;28;20060;-84
2021/09/18 14:05:32;;;;;;;2.75;1.10;;;;;;;;;;5040927;28;20092;-84
2021/09/18 14:07:58;;;;;;;2.45;1.20;;;;;;;;;;5040734;28;20168;-84
2021/09/18 14:10:24;;;;;;;1.38;1.27;;;;;;;;;;5039462;28;20052;-84
2021/09/18 14:12:50;;;;;;;1.60;1.20;;;;;;;;;;5022417;28;20038;-84
2021/09/18 14:15:16;;;;;;;3.85;1.17;;;;;;;;;;5021215;28;20069;-84
2021/09/18 14:17:42;;;;;;;1.38;1.10;;;;;;;;;;5021016;28;20025;-83
2021/09/18 14:20:08;;;;;;;3.28;1.00;;;;;;;;;;5020806;28;20431;-84
2021/09/18 14:22:35;;;;;;;4.15;1.20;;;;;;;;;;5020726;28;20042;-84
2021/09/18 14:25:01;;;;;;;3.58;1.20;;;;;;;;;;5020679;28;20022;-83
2021/09/18 14:27:28;;;;;;;5.50;2.53;;;;;;;;;;5019779;28;20156;-84
2021/09/18 14:29:57;;;;;;;14.10;6.97;;;;;;;;;;5020645;28;20425;-84
2021/09/18 14:32:23;;;;;;;11.75;2.70;;;;;;;;;;5019631;28;20124;-84
2021/09/18 14:34:49;;;;;;;3.67;1.90;;;;;;;;;;5019513;28;20053;-83
2021/09/18 14:37:15;;;;;;;4.40;1.92;;;;;;;;;;5019529;28;20041;-84
2021/09/18 14:39:42;;;;;;;2.05;1.52;;;;;;;;;;5019394;28;20420;-83
2021/09/18 14:42:08;;;;;;;3.38;1.67;;;;;;;;;;5020463;28;20057;-84
2021/09/18 14:44:35;;;;;;;2.63;1.50;;;;;;;;;;5020012;28;20336;-84
2021/09/18 14:47:01;;;;;;;3.63;2.22;;;;;;;;;;5019289;28;20041;-84
2021/09/18 14:49:27;;;;;;;3.72;1.30;;;;;;;;;;5020550;28;20050;-84
2021/09/18 14:51:53;;;;;;;3.47;1.00;;;;;;;;;;5020518;28;20022;-84
2021/09/18 14:54:20;;;;;;;5.75;2.08;;;;;;;;;;5020229;28;20412;-84